Hovedside
METAR-TAF:

METAR-TAF

Lufthavner :

Villmanstrand, Finland

Villmanstrand lufthavn

breddegrad: 61-02-45N, lengdegrad: 028-08-55E, høyde over havet: 106 m

Gjeldene værobservasjon

Denne rapporten ble laget for 26 minutter siden, klokken 20:20 UTC
Vind 15 kt fra Nordvest med vindkast opp mot 27 kt, skiftende mellom Vest og Nord
Temperatur 5°C
Luftfuktighet 45%
Trykk 1000 hPa
Sikt 10 km eller mer
ingen skyer under 1500 m og ingen bygeskyer

METAR: EFLP 262020Z AUTO 31015G27KT 270V360 CAVOK 05/M06 Q1000

Tid: 23:46 (20:46 UTC)


TAF: fraværende

Værobservasjoner og værvarsel for over 4000 flyplasser (METAR- og TAF-rapporter).

Tilgjengelige stasjoner er representert av de røde og gule prikkene på kartet.

Hold musepekeren over prikken for å se navnet på stasjonen.

Klikk så for å se værobservasjoner og -varsler.

For å forandre kartet kan du klikke på den grønne knappen med svart kryss for å zoome inn, på den grønne knappen med strek for å zoome ut, eller på de grønne pilene for å se tilstøtende kart.


METAR-TAF: